createdAt,value
2023-01-30T00:01:21.471Z,1.30
2023-01-30T00:03:49.647Z,1.37
2023-01-30T00:06:17.591Z,1.29
2023-01-30T00:08:46.083Z,1.45
2023-01-30T00:11:15.832Z,1.40
2023-01-30T00:13:44.022Z,1.44
2023-01-30T00:16:12.154Z,1.50
2023-01-30T00:18:41.678Z,1.51
2023-01-30T00:21:11.292Z,1.36
2023-01-30T00:23:40.028Z,1.38
2023-01-30T00:26:09.688Z,1.35
2023-01-30T00:28:39.835Z,1.37
2023-01-30T00:31:08.388Z,1.45
2023-01-30T00:33:38.663Z,1.45
2023-01-30T00:36:07.052Z,1.59
2023-01-30T00:38:35.049Z,1.61
2023-01-30T00:41:03.326Z,1.58
2023-01-30T00:43:49.836Z,1.53
2023-01-30T00:46:50.911Z,1.59
2023-01-30T00:49:19.663Z,1.53
2023-01-30T00:51:47.706Z,1.63
2023-01-30T00:54:15.591Z,1.54
2023-01-30T00:56:43.300Z,1.65
2023-01-30T00:59:11.253Z,1.59
2023-01-30T01:01:39.033Z,1.46
2023-01-30T01:04:10.344Z,1.49
2023-01-30T01:06:38.702Z,1.52
2023-01-30T01:09:07.373Z,1.50
2023-01-30T01:11:35.064Z,1.50
2023-01-30T01:14:05.101Z,1.61
2023-01-30T01:16:33.785Z,1.49
2023-01-30T01:19:02.447Z,1.61
2023-01-30T01:21:30.459Z,1.65
2023-01-30T01:24:00.848Z,1.50
2023-01-30T01:26:28.763Z,1.49
2023-01-30T01:28:58.332Z,1.49
2023-01-30T01:31:26.766Z,1.71
2023-01-30T01:33:57.389Z,1.57
2023-01-30T01:36:52.287Z,1.46
2023-01-30T01:39:14.702Z,1.45
2023-01-30T01:41:42.893Z,1.54
2023-01-30T01:44:17.211Z,1.57
2023-01-30T01:46:58.257Z,1.66
2023-01-30T01:49:33.736Z,1.58
2023-01-30T01:52:15.397Z,1.61
2023-01-30T01:54:49.032Z,1.57
2023-01-30T01:57:25.231Z,1.57
2023-01-30T02:00:16.880Z,1.53
2023-01-30T02:02:58.077Z,1.58
2023-01-30T02:05:31.360Z,1.67
2023-01-30T02:08:04.996Z,1.67
2023-01-30T02:10:56.999Z,1.70
2023-01-30T02:13:25.203Z,1.66
2023-01-30T02:15:58.157Z,1.50
2023-01-30T02:18:26.276Z,1.63
2023-01-30T02:21:31.700Z,1.65
2023-01-30T02:24:20.639Z,1.53
2023-01-30T02:27:07.782Z,1.66
2023-01-30T02:29:38.382Z,1.60
2023-01-30T02:32:09.309Z,1.55
2023-01-30T02:34:56.007Z,1.61
2023-01-30T02:37:43.972Z,1.65
2023-01-30T02:40:36.666Z,1.69
2023-01-30T02:43:24.958Z,1.60
2023-01-30T02:46:08.918Z,1.61
2023-01-30T02:48:42.413Z,1.58
2023-01-30T02:51:30.470Z,1.64
2023-01-30T02:54:00.186Z,1.66
2023-01-30T02:56:28.024Z,1.63
2023-01-30T02:59:02.398Z,1.62
2023-01-30T03:01:44.482Z,1.60
2023-01-30T03:04:42.188Z,1.56
2023-01-30T03:07:34.886Z,1.51
2023-01-30T03:10:08.819Z,1.54
2023-01-30T03:12:53.915Z,1.59
2023-01-30T03:15:34.314Z,1.58
2023-01-30T03:18:03.473Z,1.47
2023-01-30T03:20:36.610Z,1.54
2023-01-30T03:23:04.257Z,1.45
2023-01-30T03:25:33.695Z,1.50
2023-01-30T03:28:04.946Z,1.57
2023-01-30T03:30:33.204Z,1.48
2023-01-30T03:33:07.733Z,1.61
2023-01-30T03:35:37.607Z,1.60
2023-01-30T03:38:06.169Z,1.45
2023-01-30T03:40:34.327Z,1.43
2023-01-30T03:43:02.074Z,1.44
2023-01-30T03:45:30.250Z,1.33
2023-01-30T03:47:57.990Z,1.37
2023-01-30T03:50:25.913Z,1.30
2023-01-30T03:52:54.087Z,1.30
2023-01-30T03:55:23.249Z,1.20
2023-01-30T03:57:58.856Z,1.18
2023-01-30T04:00:30.473Z,1.15
2023-01-30T04:02:59.039Z,0.97
2023-01-30T04:05:27.576Z,0.97
2023-01-30T04:08:02.333Z,1.15
2023-01-30T04:10:30.266Z,1.19
2023-01-30T04:12:58.299Z,1.09
2023-01-30T04:15:26.287Z,1.15
2023-01-30T04:18:14.269Z,1.15
2023-01-30T04:20:56.740Z,1.14
2023-01-30T04:23:31.648Z,1.18
2023-01-30T04:25:59.638Z,0.92
2023-01-30T04:28:28.340Z,1.14
2023-01-30T04:30:56.454Z,1.14
2023-01-30T04:33:43.264Z,1.13
2023-01-30T04:36:13.118Z,1.14
2023-01-30T04:38:41.955Z,1.18
2023-01-30T04:41:09.999Z,1.05
2023-01-30T04:43:41.269Z,0.92
2023-01-30T04:46:12.073Z,0.84
2023-01-30T04:48:40.858Z,0.77
2023-01-30T04:51:08.879Z,0.86
2023-01-30T04:53:38.688Z,0.84
2023-01-30T04:56:07.310Z,0.81
2023-01-30T04:58:35.643Z,0.78
2023-01-30T05:01:21.513Z,0.75
2023-01-30T05:03:53.426Z,0.73
2023-01-30T05:06:22.915Z,0.79
2023-01-30T05:08:52.442Z,0.80
2023-01-30T05:11:21.666Z,0.78
2023-01-30T05:13:49.574Z,0.85
2023-01-30T05:16:18.900Z,0.90
2023-01-30T05:18:47.046Z,0.87
2023-01-30T05:21:18.286Z,1.04
2023-01-30T05:23:46.334Z,0.96
2023-01-30T05:26:15.448Z,0.80
2023-01-30T05:28:43.365Z,0.86
2023-01-30T05:31:13.876Z,0.85
2023-01-30T05:33:42.090Z,0.76
2023-01-30T05:36:15.457Z,0.88
2023-01-30T05:38:44.420Z,0.92
2023-01-30T05:41:14.396Z,0.91
2023-01-30T05:43:42.301Z,0.96
2023-01-30T05:46:12.769Z,0.93
2023-01-30T05:48:40.900Z,0.95
2023-01-30T05:51:17.967Z,0.98
2023-01-30T05:53:45.635Z,0.91
2023-01-30T05:56:13.673Z,0.95
2023-01-30T05:58:41.659Z,0.96
2023-01-30T06:01:12.860Z,1.08
2023-01-30T06:03:40.828Z,0.99
2023-01-30T06:06:11.489Z,0.94
2023-01-30T06:08:39.782Z,0.94
2023-01-30T06:11:10.579Z,0.93
2023-01-30T06:13:38.757Z,0.94
2023-01-30T06:16:08.613Z,0.84
2023-01-30T06:18:36.678Z,0.92
2023-01-30T06:21:05.181Z,1.00
2023-01-30T06:23:33.012Z,0.90
2023-01-30T06:26:03.508Z,0.92
2023-01-30T06:28:32.979Z,0.92
2023-01-30T06:31:01.008Z,0.86
2023-01-30T06:33:29.077Z,0.89
2023-01-30T06:35:57.167Z,0.90
2023-01-30T06:38:26.152Z,0.92
2023-01-30T06:40:54.242Z,0.90
2023-01-30T06:43:21.884Z,0.86
2023-01-30T06:45:49.880Z,1.00
2023-01-30T06:48:17.599Z,0.95
2023-01-30T06:50:48.028Z,1.03
2023-01-30T06:53:15.783Z,0.94
2023-01-30T06:55:43.655Z,0.95
2023-01-30T06:58:13.634Z,1.01
2023-01-30T07:00:43.448Z,0.97
2023-01-30T07:03:13.604Z,1.09
2023-01-30T07:05:43.101Z,1.00
2023-01-30T07:08:11.429Z,1.05
2023-01-30T07:10:40.717Z,1.02
2023-01-30T07:13:08.670Z,1.07
2023-01-30T07:15:36.973Z,1.11
2023-01-30T07:18:04.943Z,1.13
2023-01-30T07:20:33.358Z,1.03
2023-01-30T07:23:01.295Z,1.12
2023-01-30T07:25:29.799Z,1.11
2023-01-30T07:28:02.398Z,1.17
2023-01-30T07:30:33.216Z,0.97
2023-01-30T07:33:02.460Z,1.19
2023-01-30T07:35:33.546Z,1.13
2023-01-30T07:38:01.324Z,1.17
2023-01-30T07:40:29.434Z,1.10
2023-01-30T07:43:02.514Z,1.18
2023-01-30T07:45:50.773Z,1.10
2023-01-30T07:48:20.035Z,1.19
2023-01-30T07:50:48.273Z,1.07
2023-01-30T07:53:21.045Z,1.25
2023-01-30T07:55:49.021Z,1.17
2023-01-30T07:58:17.279Z,1.11
2023-01-30T08:00:45.547Z,0.95
2023-01-30T08:03:17.410Z,1.06
2023-01-30T08:05:48.664Z,0.93
2023-01-30T08:08:16.972Z,0.80
2023-01-30T08:10:45.126Z,0.90
2023-01-30T08:13:14.823Z,0.99
2023-01-30T08:15:42.803Z,0.95
2023-01-30T08:18:10.673Z,0.90
2023-01-30T08:20:38.717Z,0.80
2023-01-30T08:23:06.466Z,0.67
2023-01-30T08:25:35.537Z,0.71
2023-01-30T08:28:03.835Z,0.61
2023-01-30T08:30:31.870Z,0.56
2023-01-30T08:32:59.686Z,0.67
2023-01-30T08:35:27.757Z,0.55
2023-01-30T08:37:55.823Z,0.44
2023-01-30T08:40:23.791Z,0.54
2023-01-30T08:42:51.428Z,0.68
2023-01-30T08:45:19.463Z,0.66
2023-01-30T08:47:47.455Z,0.68
2023-01-30T08:50:15.636Z,0.59
2023-01-30T08:52:43.456Z,0.53
2023-01-30T08:55:11.834Z,0.46
2023-01-30T08:57:39.687Z,0.46
2023-01-30T09:00:09.074Z,0.38
2023-01-30T09:02:37.010Z,0.45
2023-01-30T09:05:06.531Z,0.56
2023-01-30T09:07:34.465Z,0.42
2023-01-30T09:10:02.505Z,0.53
2023-01-30T09:12:30.124Z,0.36
2023-01-30T09:14:58.543Z,0.39
2023-01-30T09:17:26.295Z,0.48
2023-01-30T09:19:54.795Z,0.43
2023-01-30T09:22:22.508Z,0.54
2023-01-30T09:24:50.421Z,0.49
2023-01-30T09:27:18.074Z,0.57
2023-01-30T09:29:46.091Z,0.66
2023-01-30T09:32:13.950Z,0.52
2023-01-30T09:34:41.875Z,0.52
2023-01-30T09:37:10.679Z,0.59
2023-01-30T09:39:38.623Z,0.49
2023-01-30T09:42:29.630Z,0.53
2023-01-30T09:45:28.109Z,0.64
2023-01-30T09:48:13.599Z,0.73
2023-01-30T09:50:56.094Z,0.78
2023-01-30T09:53:39.114Z,0.82
2023-01-30T09:56:07.365Z,0.71
2023-01-30T09:58:57.617Z,0.72
2023-01-30T10:01:51.616Z,0.72
2023-01-30T10:04:29.727Z,0.87
2023-01-30T10:07:16.881Z,0.92
2023-01-30T10:10:22.997Z,0.86
2023-01-30T10:13:12.405Z,0.89
2023-01-30T10:15:42.956Z,0.75
2023-01-30T10:18:34.948Z,0.71
2023-01-30T10:21:08.398Z,0.71
2023-01-30T10:24:00.872Z,0.74
2023-01-30T10:26:31.317Z,0.73
2023-01-30T10:29:12.516Z,0.69
2023-01-30T10:32:15.577Z,0.71
2023-01-30T10:34:49.038Z,0.86
2023-01-30T10:37:22.818Z,0.81
2023-01-30T10:39:55.598Z,0.82
2023-01-30T10:42:41.964Z,0.81
2023-01-30T10:45:26.668Z,0.79
2023-01-30T10:47:57.071Z,0.81
2023-01-30T10:50:58.456Z,0.76
2023-01-30T10:53:32.210Z,0.77
2023-01-30T10:56:19.385Z,0.85
2023-01-30T10:59:12.929Z,0.81
2023-01-30T11:01:45.065Z,0.84
2023-01-30T11:04:47.776Z,1.06
2023-01-30T11:07:16.349Z,0.91
2023-01-30T11:09:48.554Z,1.00
2023-01-30T11:12:17.050Z,0.97
2023-01-30T11:14:53.501Z,1.09
2023-01-30T11:17:29.911Z,0.96
2023-01-30T11:20:02.652Z,0.90
2023-01-30T11:22:34.349Z,0.78
2023-01-30T11:25:11.653Z,0.82
2023-01-30T11:27:43.496Z,0.94
2023-01-30T11:30:20.337Z,0.98
2023-01-30T11:32:50.354Z,0.94
2023-01-30T11:35:25.812Z,1.08
2023-01-30T11:37:53.916Z,1.04
2023-01-30T11:40:28.259Z,1.13
2023-01-30T11:43:11.846Z,1.09
2023-01-30T11:45:45.797Z,1.26
2023-01-30T11:48:32.981Z,1.22
2023-01-30T11:51:09.496Z,1.36
2023-01-30T11:53:42.662Z,1.43
2023-01-30T11:56:20.808Z,1.48
2023-01-30T11:58:58.221Z,1.61
2023-01-30T12:01:38.365Z,1.46
2023-01-30T12:04:11.093Z,1.43
2023-01-30T12:06:42.363Z,1.37
2023-01-30T12:09:34.627Z,1.33
2023-01-30T12:12:02.674Z,1.43
2023-01-30T12:14:52.607Z,1.45
2023-01-30T12:17:49.383Z,1.49
2023-01-30T12:20:46.701Z,1.44
2023-01-30T12:23:23.886Z,1.33
2023-01-30T12:25:57.128Z,1.29
2023-01-30T12:28:53.981Z,1.41
2023-01-30T12:31:36.785Z,1.54
2023-01-30T12:34:04.911Z,1.35
2023-01-30T12:36:45.404Z,1.45
2023-01-30T12:39:32.007Z,1.41
2023-01-30T12:42:26.822Z,1.47
2023-01-30T12:45:21.827Z,1.44
2023-01-30T12:48:07.807Z,1.37
2023-01-30T12:50:49.625Z,1.30
2023-01-30T12:53:23.690Z,1.49
2023-01-30T12:55:57.239Z,1.60
2023-01-30T12:58:43.672Z,1.58
2023-01-30T13:01:25.111Z,1.51
2023-01-30T13:03:57.711Z,1.49
2023-01-30T13:06:46.862Z,1.59
2023-01-30T13:09:38.972Z,1.64
2023-01-30T13:12:37.569Z,1.56
2023-01-30T13:15:17.780Z,1.46
2023-01-30T13:18:20.922Z,1.49
2023-01-30T13:21:13.982Z,1.63
2023-01-30T13:24:01.900Z,1.60
2023-01-30T13:26:36.310Z,1.54
2023-01-30T13:29:21.208Z,1.58
2023-01-30T13:31:59.589Z,1.54
2023-01-30T13:34:44.428Z,1.57
2023-01-30T13:37:13.403Z,1.54
2023-01-30T13:40:02.384Z,1.61
2023-01-30T13:42:43.904Z,1.44
2023-01-30T13:45:36.715Z,1.64
2023-01-30T13:48:19.442Z,1.62
2023-01-30T13:50:47.150Z,1.53
2023-01-30T13:53:23.588Z,1.58
2023-01-30T13:56:27.115Z,1.65
2023-01-30T13:59:10.086Z,1.60
2023-01-30T14:02:03.844Z,1.65
2023-01-30T14:04:41.324Z,1.59
2023-01-30T14:07:21.881Z,1.67
2023-01-30T14:10:09.958Z,1.58
2023-01-30T14:12:47.893Z,1.73
2023-01-30T14:15:17.385Z,1.72
2023-01-30T14:17:57.715Z,1.79
2023-01-30T14:20:28.475Z,1.74
2023-01-30T14:23:20.712Z,1.64
2023-01-30T14:25:56.479Z,1.74
2023-01-30T14:28:24.230Z,1.77
2023-01-30T14:30:54.932Z,1.74
2023-01-30T14:33:22.520Z,1.89
2023-01-30T14:36:13.469Z,1.96
2023-01-30T14:38:44.464Z,1.89
2023-01-30T14:41:16.747Z,1.77
2023-01-30T14:43:44.480Z,1.81
2023-01-30T14:46:18.693Z,1.83
2023-01-30T14:48:56.902Z,1.93
2023-01-30T14:51:43.512Z,2.01
2023-01-30T14:54:16.979Z,1.84
2023-01-30T14:56:51.093Z,1.93
2023-01-30T14:59:26.881Z,1.99
2023-01-30T15:02:15.106Z,1.86
2023-01-30T15:05:20.385Z,1.94
2023-01-30T15:08:08.954Z,2.03
2023-01-30T15:10:54.589Z,1.92
2023-01-30T15:13:51.893Z,1.98
2023-01-30T15:16:43.529Z,1.90
2023-01-30T15:19:35.045Z,1.97
2023-01-30T15:22:23.028Z,1.94
2023-01-30T15:25:13.143Z,1.92
2023-01-30T15:28:00.136Z,1.92
2023-01-30T15:30:59.448Z,1.93
2023-01-30T15:33:31.286Z,1.98
2023-01-30T15:36:00.548Z,2.04
2023-01-30T15:38:35.072Z,1.93
2023-01-30T15:41:07.270Z,1.93
2023-01-30T15:43:42.992Z,1.97
2023-01-30T15:46:38.978Z,1.97
2023-01-30T15:49:34.639Z,1.97
2023-01-30T15:52:11.222Z,2.23
2023-01-30T15:54:38.897Z,2.16
2023-01-30T15:57:07.222Z,2.19
2023-01-30T15:59:40.004Z,2.15
2023-01-30T16:02:28.147Z,2.19
2023-01-30T16:05:28.885Z,2.16
2023-01-30T16:07:58.982Z,2.06
2023-01-30T16:10:29.562Z,2.10
2023-01-30T16:13:02.439Z,2.18
2023-01-30T16:15:48.516Z,2.20
2023-01-30T16:18:25.614Z,2.22
2023-01-30T16:21:18.648Z,2.11
2023-01-30T16:23:57.498Z,2.13
2023-01-30T16:26:25.334Z,2.19
2023-01-30T16:29:02.472Z,2.39
2023-01-30T16:31:35.353Z,2.33
2023-01-30T16:34:03.897Z,2.42
2023-01-30T16:36:38.191Z,2.37
2023-01-30T16:39:33.253Z,2.38
2023-01-30T16:42:02.396Z,2.37
2023-01-30T16:44:32.565Z,2.36
2023-01-30T16:47:11.186Z,2.29
2023-01-30T16:49:48.283Z,2.39
2023-01-30T16:52:19.114Z,2.37
2023-01-30T16:54:59.926Z,2.41
2023-01-30T16:57:36.666Z,2.49
2023-01-30T17:00:29.792Z,2.45
2023-01-30T17:03:07.500Z,2.47
2023-01-30T17:05:46.239Z,2.37
2023-01-30T17:08:54.262Z,2.44
2023-01-30T17:11:39.241Z,2.38
2023-01-30T17:14:30.642Z,2.44
2023-01-30T17:17:03.141Z,2.43
2023-01-30T17:19:30.917Z,2.42
2023-01-30T17:22:01.596Z,2.50
2023-01-30T17:24:30.014Z,2.52
2023-01-30T17:27:02.634Z,2.47
2023-01-30T17:29:42.343Z,2.46
2023-01-30T17:32:15.129Z,2.46
2023-01-30T17:34:43.056Z,2.45
2023-01-30T17:37:20.346Z,2.61
2023-01-30T17:39:48.760Z,2.64
2023-01-30T17:42:18.748Z,2.58
2023-01-30T17:44:46.584Z,2.74
2023-01-30T17:47:14.608Z,2.66
2023-01-30T17:49:42.454Z,2.65
2023-01-30T17:52:13.012Z,2.66
2023-01-30T17:54:40.850Z,2.70
2023-01-30T17:57:11.842Z,2.79
2023-01-30T17:59:39.537Z,2.79
2023-01-30T18:02:09.719Z,2.84
2023-01-30T18:04:39.940Z,2.88
2023-01-30T18:07:12.462Z,2.87
2023-01-30T18:09:40.261Z,2.95
2023-01-30T18:12:08.295Z,3.00
2023-01-30T18:14:35.946Z,2.88
2023-01-30T18:17:04.177Z,2.86
2023-01-30T18:19:31.965Z,2.85
2023-01-30T18:22:00.199Z,2.95
2023-01-30T18:24:27.935Z,2.94
2023-01-30T18:26:56.069Z,2.92
2023-01-30T18:29:23.984Z,3.01
2023-01-30T18:31:52.024Z,2.94
2023-01-30T18:34:19.814Z,3.00
2023-01-30T18:36:48.459Z,2.97
2023-01-30T18:39:16.204Z,2.90
2023-01-30T18:41:44.160Z,3.06
2023-01-30T18:44:11.863Z,2.87
2023-01-30T18:46:40.024Z,2.94
2023-01-30T18:49:08.391Z,2.96
2023-01-30T18:51:36.405Z,2.93
2023-01-30T18:54:04.141Z,2.88
2023-01-30T18:56:34.122Z,3.08
2023-01-30T18:59:04.349Z,3.05
2023-01-30T19:01:38.738Z,3.02
2023-01-30T19:04:09.191Z,3.06
2023-01-30T19:06:40.782Z,2.96
2023-01-30T19:09:11.850Z,2.93
2023-01-30T19:11:58.454Z,2.96
2023-01-30T19:14:26.393Z,2.97
2023-01-30T19:16:54.627Z,3.00
2023-01-30T19:19:22.476Z,2.92
2023-01-30T19:21:52.329Z,2.94
2023-01-30T19:24:20.042Z,3.08
2023-01-30T19:26:48.933Z,3.04
2023-01-30T19:29:18.256Z,3.02
2023-01-30T19:31:50.201Z,2.93
2023-01-30T19:34:18.156Z,2.90
2023-01-30T19:36:46.111Z,2.87
2023-01-30T19:39:13.814Z,2.85
2023-01-30T19:41:41.731Z,2.74
2023-01-30T19:44:11.731Z,2.88
2023-01-30T19:46:40.801Z,2.87
2023-01-30T19:49:10.396Z,3.04
2023-01-30T19:51:38.348Z,3.07
2023-01-30T19:54:09.608Z,3.01
2023-01-30T19:56:39.333Z,3.19
2023-01-30T19:59:07.896Z,3.27
2023-01-30T20:01:39.779Z,3.10
2023-01-30T20:04:07.856Z,3.26
2023-01-30T20:06:37.564Z,3.10
2023-01-30T20:09:07.964Z,3.16
2023-01-30T20:11:38.350Z,3.15
2023-01-30T20:14:07.207Z,3.17
2023-01-30T20:16:36.300Z,3.19
2023-01-30T20:19:07.751Z,3.13
2023-01-30T20:21:36.349Z,3.15
2023-01-30T20:24:04.572Z,3.12
2023-01-30T20:26:35.452Z,3.17
2023-01-30T20:29:04.357Z,3.24
2023-01-30T20:31:33.646Z,3.33
2023-01-30T20:34:06.056Z,3.24
2023-01-30T20:36:34.091Z,3.22
2023-01-30T20:39:04.098Z,3.23
2023-01-30T20:41:35.061Z,3.20
2023-01-30T20:44:03.627Z,3.24
2023-01-30T20:46:43.620Z,3.18
2023-01-30T20:49:17.820Z,3.30
2023-01-30T20:51:48.079Z,3.21
2023-01-30T20:54:16.556Z,3.16
2023-01-30T20:56:50.834Z,3.20
2023-01-30T20:59:24.306Z,3.21
2023-01-30T21:01:53.305Z,3.21
2023-01-30T21:04:22.535Z,3.21
2023-01-30T21:06:50.859Z,3.06
2023-01-30T21:09:22.330Z,2.98
2023-01-30T21:11:52.638Z,3.08
2023-01-30T21:14:20.817Z,2.96
2023-01-30T21:16:49.243Z,2.96
2023-01-30T21:19:18.188Z,3.09
2023-01-30T21:21:53.464Z,3.08
2023-01-30T21:24:28.796Z,3.20
2023-01-30T21:26:57.827Z,3.11
2023-01-30T21:29:27.851Z,3.14
2023-01-30T21:31:57.465Z,3.19
2023-01-30T21:34:25.746Z,3.08
2023-01-30T21:37:12.403Z,3.18
2023-01-30T21:39:59.097Z,3.08
2023-01-30T21:42:45.644Z,3.14
2023-01-30T21:45:13.638Z,3.12
2023-01-30T21:47:41.746Z,3.17
2023-01-30T21:50:10.093Z,3.16
2023-01-30T21:52:38.165Z,3.20
2023-01-30T21:55:06.144Z,3.14
2023-01-30T21:57:34.336Z,3.02
2023-01-30T22:00:02.208Z,3.12
2023-01-30T22:02:33.185Z,3.05
2023-01-30T22:05:00.967Z,3.08
2023-01-30T22:07:29.006Z,3.07
2023-01-30T22:09:57.184Z,3.02
2023-01-30T22:12:26.541Z,2.77
2023-01-30T22:14:54.891Z,2.77
2023-01-30T22:17:22.971Z,2.81
2023-01-30T22:19:50.668Z,2.67
2023-01-30T22:22:18.650Z,2.68
2023-01-30T22:24:46.287Z,2.95
2023-01-30T22:27:16.338Z,2.80
2023-01-30T22:29:44.090Z,2.94
2023-01-30T22:32:12.130Z,2.74
2023-01-30T22:34:39.903Z,2.87
2023-01-30T22:37:07.827Z,2.82
2023-01-30T22:39:35.910Z,2.77
2023-01-30T22:42:04.042Z,2.89
2023-01-30T22:44:31.651Z,2.77
2023-01-30T22:47:00.118Z,2.80
2023-01-30T22:49:27.741Z,3.00
2023-01-30T22:51:55.632Z,2.70
2023-01-30T22:54:25.036Z,2.76
2023-01-30T22:56:53.337Z,2.90
2023-01-30T22:59:21.827Z,2.90
2023-01-30T23:01:51.018Z,2.98
2023-01-30T23:04:21.644Z,2.77
2023-01-30T23:06:53.888Z,2.95
2023-01-30T23:09:23.449Z,2.99
2023-01-30T23:12:13.422Z,2.91
2023-01-30T23:14:42.905Z,2.89
2023-01-30T23:17:30.155Z,2.98
2023-01-30T23:19:58.522Z,3.08
2023-01-30T23:22:26.476Z,3.10
2023-01-30T23:24:54.055Z,3.18
2023-01-30T23:27:22.221Z,3.03
2023-01-30T23:29:49.982Z,3.20
2023-01-30T23:32:21.008Z,3.16
2023-01-30T23:34:48.989Z,3.22
2023-01-30T23:37:17.589Z,3.11
2023-01-30T23:39:45.935Z,3.20
2023-01-30T23:42:13.854Z,3.03
2023-01-30T23:44:41.527Z,3.16
2023-01-30T23:47:09.417Z,3.12
2023-01-30T23:49:37.679Z,3.22
2023-01-30T23:52:06.084Z,3.27
2023-01-30T23:54:33.776Z,3.23
2023-01-30T23:57:01.714Z,3.17
2023-01-30T23:59:29.470Z,3.06
